createdAt,value
2023-02-04T00:00:05.231Z,5.80
2023-02-04T00:02:34.910Z,5.70
2023-02-04T00:05:03.456Z,5.70
2023-02-04T00:07:31.449Z,5.60
2023-02-04T00:09:59.462Z,5.60
2023-02-04T00:12:27.502Z,5.50
2023-02-04T00:14:55.486Z,5.50
2023-02-04T00:17:23.522Z,5.50
2023-02-04T00:19:52.971Z,5.40
2023-02-04T00:22:21.429Z,5.40
2023-02-04T00:24:50.611Z,5.40
2023-02-04T00:27:18.711Z,5.40
2023-02-04T00:29:46.696Z,5.40
2023-02-04T00:32:14.934Z,5.30
2023-02-04T00:34:43.227Z,5.30
2023-02-04T00:37:12.706Z,5.30
2023-02-04T00:39:40.884Z,5.30
2023-02-04T00:42:09.387Z,5.30
2023-02-04T00:44:37.571Z,5.40
2023-02-04T00:47:06.160Z,5.40
2023-02-04T00:49:35.224Z,5.40
2023-02-04T00:52:03.537Z,5.50
2023-02-04T00:54:32.960Z,5.50
2023-02-04T00:57:00.950Z,5.60
2023-02-04T00:59:28.994Z,5.70
2023-02-04T01:01:57.003Z,5.60
2023-02-04T01:04:25.844Z,5.70
2023-02-04T01:06:53.838Z,5.70
2023-02-04T01:09:21.920Z,5.70
2023-02-04T01:11:51.388Z,5.70
2023-02-04T01:14:19.575Z,5.70
2023-02-04T01:16:47.967Z,5.70
2023-02-04T01:19:16.020Z,5.80
2023-02-04T01:21:44.020Z,5.70
2023-02-04T01:24:12.072Z,5.70
2023-02-04T01:26:40.155Z,5.70
2023-02-04T01:29:09.570Z,5.80
2023-02-04T01:31:37.627Z,5.80
2023-02-04T01:34:05.681Z,5.80
2023-02-04T01:36:33.699Z,5.80
2023-02-04T01:39:01.938Z,5.80
2023-02-04T01:41:30.029Z,5.80
2023-02-04T01:43:58.076Z,5.70
2023-02-04T01:46:27.732Z,5.70
2023-02-04T01:48:55.800Z,5.70
2023-02-04T01:51:28.491Z,5.70
2023-02-04T01:53:56.991Z,5.80
2023-02-04T01:56:26.901Z,5.80
2023-02-04T01:58:56.231Z,5.80
2023-02-04T02:01:41.744Z,5.90
2023-02-04T02:04:10.243Z,5.90
2023-02-04T02:06:41.262Z,5.80
2023-02-04T02:09:09.348Z,5.90
2023-02-04T02:11:37.442Z,5.90
2023-02-04T02:14:06.019Z,5.90
2023-02-04T02:16:34.354Z,5.90
2023-02-04T02:19:04.078Z,5.90
2023-02-04T02:21:36.270Z,5.90
2023-02-04T02:24:27.983Z,5.90
2023-02-04T02:26:57.473Z,5.90
2023-02-04T02:29:25.849Z,5.90
2023-02-04T02:31:54.649Z,5.90
2023-02-04T02:34:22.741Z,5.90
2023-02-04T02:36:51.497Z,5.90
2023-02-04T02:39:21.528Z,6.00
2023-02-04T02:41:49.662Z,5.90
2023-02-04T02:44:19.185Z,6.00
2023-02-04T02:46:47.478Z,5.90
2023-02-04T02:49:19.052Z,6.00
2023-02-04T02:51:47.758Z,6.00
2023-02-04T02:54:24.166Z,6.00
2023-02-04T02:56:53.092Z,5.90
2023-02-04T02:59:21.397Z,5.90
2023-02-04T03:01:52.840Z,5.90
2023-02-04T03:04:22.657Z,5.80
2023-02-04T03:06:51.739Z,5.80
2023-02-04T03:09:20.546Z,5.80
2023-02-04T03:11:50.114Z,5.80
2023-02-04T03:14:19.094Z,5.80
2023-02-04T03:16:49.046Z,5.70
2023-02-04T03:19:17.402Z,5.70
2023-02-04T03:21:46.713Z,5.70
2023-02-04T03:24:14.904Z,5.70
2023-02-04T03:26:42.964Z,5.70
2023-02-04T03:29:12.421Z,5.70
2023-02-04T03:31:40.548Z,5.70
2023-02-04T03:34:09.010Z,5.70
2023-02-04T03:36:37.765Z,5.70
2023-02-04T03:39:06.106Z,5.70
2023-02-04T03:41:34.070Z,5.70
2023-02-04T03:44:02.072Z,5.70
2023-02-04T03:46:31.698Z,5.70
2023-02-04T03:48:59.726Z,5.70
2023-02-04T03:51:27.711Z,5.80
2023-02-04T03:53:55.746Z,5.80
2023-02-04T03:56:23.745Z,5.80
2023-02-04T03:58:51.737Z,5.80
2023-02-04T04:01:19.829Z,5.80
2023-02-04T04:03:49.273Z,5.80
2023-02-04T04:06:17.264Z,5.80
2023-02-04T04:08:45.394Z,5.70
2023-02-04T04:11:13.396Z,5.70
2023-02-04T04:13:41.805Z,5.70
2023-02-04T04:16:10.111Z,5.70
2023-02-04T04:18:38.135Z,5.80
2023-02-04T04:21:07.553Z,5.70
2023-02-04T04:23:35.885Z,5.80
2023-02-04T04:26:03.865Z,5.80
2023-02-04T04:28:31.964Z,5.80
2023-02-04T04:31:00.058Z,5.80
2023-02-04T04:33:28.107Z,5.80
2023-02-04T04:35:56.154Z,5.80
2023-02-04T04:38:25.542Z,5.80
2023-02-04T04:40:53.558Z,5.70
2023-02-04T04:43:21.577Z,5.60
2023-02-04T04:45:49.590Z,5.50
2023-02-04T04:48:17.629Z,5.50
2023-02-04T04:50:45.698Z,5.40
2023-02-04T04:53:13.712Z,5.40
2023-02-04T04:55:43.112Z,5.30
2023-02-04T04:58:11.305Z,5.30
2023-02-04T05:00:39.370Z,5.30
2023-02-04T05:03:07.698Z,5.30
2023-02-04T05:05:39.944Z,5.30
2023-02-04T05:08:10.951Z,5.30
2023-02-04T05:10:38.957Z,5.20
2023-02-04T05:13:08.394Z,5.30
2023-02-04T05:15:36.939Z,5.30
2023-02-04T05:18:05.177Z,5.20
2023-02-04T05:20:33.622Z,5.20
2023-02-04T05:23:04.033Z,5.20
2023-02-04T05:25:33.519Z,5.30
2023-02-04T05:28:01.558Z,5.30
2023-02-04T05:30:31.542Z,5.30
2023-02-04T05:32:59.729Z,5.30
2023-02-04T05:35:27.836Z,5.30
2023-02-04T05:37:55.841Z,5.40
2023-02-04T05:40:24.033Z,5.40
2023-02-04T05:42:51.999Z,5.40
2023-02-04T05:45:20.182Z,5.40
2023-02-04T05:47:49.564Z,5.40
2023-02-04T05:50:17.944Z,5.40
2023-02-04T05:52:45.978Z,5.40
2023-02-04T05:55:14.525Z,5.50
2023-02-04T05:57:42.612Z,5.40
2023-02-04T06:00:12.676Z,5.50
2023-02-04T06:02:40.880Z,5.50
2023-02-04T06:05:10.409Z,5.40
2023-02-04T06:07:38.543Z,5.40
2023-02-04T06:10:07.017Z,5.50
2023-02-04T06:12:35.086Z,5.40
2023-02-04T06:15:03.166Z,5.50
2023-02-04T06:17:31.172Z,5.50
2023-02-04T06:19:59.196Z,5.50
2023-02-04T06:22:29.151Z,5.60
2023-02-04T06:24:57.217Z,5.50
2023-02-04T06:27:25.328Z,5.50
2023-02-04T06:29:54.801Z,5.50
2023-02-04T06:32:23.248Z,5.60
2023-02-04T06:34:51.744Z,5.60
2023-02-04T06:37:20.397Z,5.50
2023-02-04T06:39:49.802Z,5.50
2023-02-04T06:42:17.785Z,5.50
2023-02-04T06:44:45.785Z,5.50
2023-02-04T06:47:13.783Z,5.50
2023-02-04T06:49:41.791Z,5.50
2023-02-04T06:52:10.036Z,5.50
2023-02-04T06:54:38.973Z,5.60
2023-02-04T06:57:08.451Z,5.60
2023-02-04T06:59:36.887Z,5.60
2023-02-04T07:02:06.096Z,5.70
2023-02-04T07:04:34.267Z,5.60
2023-02-04T07:07:02.315Z,5.60
2023-02-04T07:09:32.773Z,5.60
2023-02-04T07:12:00.815Z,5.60
2023-02-04T07:14:30.242Z,5.70
2023-02-04T07:16:58.805Z,5.60
2023-02-04T07:19:26.827Z,5.60
2023-02-04T07:21:56.881Z,5.60
2023-02-04T07:24:25.513Z,5.70
2023-02-04T07:26:53.615Z,5.70
2023-02-04T07:29:25.648Z,5.70
2023-02-04T07:31:55.589Z,5.70
2023-02-04T07:34:23.759Z,5.70
2023-02-04T07:36:51.822Z,5.70
2023-02-04T07:39:19.893Z,5.70
2023-02-04T07:41:47.904Z,5.70
2023-02-04T07:44:15.865Z,5.60
2023-02-04T07:46:43.891Z,5.60
2023-02-04T07:49:13.406Z,5.60
2023-02-04T07:51:41.425Z,5.70
2023-02-04T07:54:09.910Z,5.70
2023-02-04T07:56:37.943Z,5.70
2023-02-04T07:59:05.963Z,5.70
2023-02-04T08:01:34.116Z,5.80
2023-02-04T08:04:02.162Z,5.70
2023-02-04T08:06:31.601Z,5.70
2023-02-04T08:08:59.592Z,5.80
2023-02-04T08:11:28.037Z,5.80
2023-02-04T08:13:56.204Z,5.80
2023-02-04T08:16:24.578Z,5.70
2023-02-04T08:18:52.679Z,5.70
2023-02-04T08:21:20.764Z,5.70
2023-02-04T08:23:50.277Z,5.70
2023-02-04T08:26:18.336Z,5.60
2023-02-04T08:28:46.338Z,5.60
2023-02-04T08:31:14.415Z,5.60
2023-02-04T08:33:42.480Z,5.60
2023-02-04T08:36:10.637Z,5.60
2023-02-04T08:38:38.663Z,5.70
2023-02-04T08:44:00.807Z,5.70
2023-02-04T08:46:29.021Z,5.80
2023-02-04T08:48:57.210Z,5.80
2023-02-04T08:51:25.284Z,5.80
2023-02-04T08:53:53.350Z,5.90
2023-02-04T08:56:22.729Z,6.00
2023-02-04T08:58:52.845Z,5.90
2023-02-04T09:01:21.006Z,5.90
2023-02-04T09:03:49.136Z,5.90
2023-02-04T09:06:17.182Z,5.90
2023-02-04T09:08:45.173Z,5.90
2023-02-04T09:11:13.215Z,5.90
2023-02-04T09:13:42.626Z,6.10
2023-02-04T09:16:10.933Z,6.10
2023-02-04T09:18:39.116Z,6.00
2023-02-04T09:21:07.336Z,6.00
2023-02-04T09:23:35.351Z,6.10
2023-02-04T09:26:04.544Z,6.10
2023-02-04T09:28:32.568Z,6.30
2023-02-04T09:31:04.239Z,6.20
2023-02-04T09:33:32.569Z,6.20
2023-02-04T09:36:00.619Z,6.30
2023-02-04T09:38:28.867Z,6.20
2023-02-04T09:41:00.952Z,6.20
2023-02-04T09:43:32.431Z,6.30
2023-02-04T09:46:02.347Z,6.20
2023-02-04T09:48:30.671Z,6.20
2023-02-04T09:51:05.978Z,6.20
2023-02-04T09:53:35.954Z,6.30
2023-02-04T09:56:04.126Z,6.40
2023-02-04T09:58:35.445Z,6.50
2023-02-04T10:01:12.159Z,6.50
2023-02-04T10:03:46.512Z,6.60
2023-02-04T10:06:16.095Z,6.70
2023-02-04T10:08:45.786Z,6.80
2023-02-04T10:11:15.772Z,6.70
2023-02-04T10:13:46.379Z,6.60
2023-02-04T10:16:18.893Z,6.50
2023-02-04T10:18:47.025Z,6.50
2023-02-04T10:21:18.625Z,6.50
2023-02-04T10:23:49.471Z,6.60
2023-02-04T10:26:18.520Z,6.70
2023-02-04T10:28:47.132Z,6.90
2023-02-04T10:31:37.894Z,6.80
2023-02-04T10:34:15.551Z,6.90
2023-02-04T10:36:46.995Z,6.90
2023-02-04T10:39:17.791Z,6.80
2023-02-04T10:41:49.636Z,6.90
2023-02-04T10:44:21.330Z,6.90
2023-02-04T10:46:50.742Z,7.00
2023-02-04T10:49:20.982Z,6.90
2023-02-04T10:51:50.722Z,6.90
2023-02-04T10:54:31.195Z,7.00
2023-02-04T10:57:01.129Z,7.10
2023-02-04T10:59:29.789Z,7.20
2023-02-04T11:02:01.680Z,7.30
2023-02-04T11:04:29.850Z,7.40
2023-02-04T11:06:57.873Z,7.50
2023-02-04T11:09:25.980Z,7.40
2023-02-04T11:11:54.028Z,7.40
2023-02-04T11:14:28.237Z,7.40
2023-02-04T11:17:01.057Z,7.40
2023-02-04T11:19:35.677Z,7.40
2023-02-04T11:22:10.040Z,7.40
2023-02-04T11:24:38.033Z,7.40
2023-02-04T11:27:24.575Z,7.30
2023-02-04T11:29:52.948Z,7.30
2023-02-04T11:32:38.024Z,7.40
2023-02-04T11:35:27.541Z,7.40
2023-02-04T11:37:56.264Z,7.40
2023-02-04T11:40:30.209Z,7.40
2023-02-04T11:43:03.311Z,7.50
2023-02-04T11:45:34.231Z,7.50
2023-02-04T11:48:10.647Z,7.50
2023-02-04T11:50:38.810Z,7.50
2023-02-04T11:53:06.979Z,7.50
2023-02-04T11:55:44.870Z,7.50
2023-02-04T11:58:17.110Z,7.50
2023-02-04T12:00:45.807Z,7.60
2023-02-04T12:03:27.035Z,7.60
2023-02-04T12:05:56.145Z,7.70
2023-02-04T12:08:32.268Z,7.70
2023-02-04T12:11:07.710Z,7.70
2023-02-04T12:13:47.484Z,7.80
2023-02-04T12:16:15.642Z,7.70
2023-02-04T12:18:45.086Z,7.70
2023-02-04T12:21:14.399Z,7.80
2023-02-04T12:23:43.541Z,8.00
2023-02-04T12:26:12.303Z,8.00
2023-02-04T12:28:40.459Z,7.90
2023-02-04T12:31:08.555Z,8.00
2023-02-04T12:33:36.634Z,7.80
2023-02-04T12:36:06.775Z,7.80
2023-02-04T12:38:34.846Z,7.80
2023-02-04T12:41:02.852Z,7.70
2023-02-04T12:43:30.871Z,7.80
2023-02-04T12:45:58.855Z,7.80
2023-02-04T12:48:27.097Z,7.70
2023-02-04T12:50:55.115Z,7.80
2023-02-04T12:53:24.628Z,7.90
2023-02-04T12:55:52.673Z,7.90
2023-02-04T12:58:20.747Z,7.80
2023-02-04T13:00:48.841Z,7.80
2023-02-04T13:03:16.922Z,7.70
2023-02-04T13:05:44.959Z,7.70
2023-02-04T13:08:12.990Z,7.70
2023-02-04T13:10:42.901Z,7.60
2023-02-04T13:13:10.965Z,7.70
2023-02-04T13:15:38.977Z,7.80
2023-02-04T13:18:08.306Z,8.00
2023-02-04T13:20:36.350Z,8.00
2023-02-04T13:23:04.744Z,7.90
2023-02-04T13:25:33.009Z,8.00
2023-02-04T13:28:02.680Z,8.10
2023-02-04T13:30:30.830Z,8.10
2023-02-04T13:32:59.687Z,8.10
2023-02-04T13:35:27.762Z,8.20
2023-02-04T13:37:56.569Z,8.10
2023-02-04T13:40:24.810Z,8.00
2023-02-04T13:42:52.871Z,7.80
2023-02-04T13:45:22.513Z,7.80
2023-02-04T13:47:50.585Z,7.90
2023-02-04T13:50:18.825Z,7.90
2023-02-04T13:52:46.860Z,7.90
2023-02-04T13:55:14.989Z,7.90
2023-02-04T13:57:43.030Z,7.90
2023-02-04T14:00:12.525Z,7.80
2023-02-04T14:02:42.917Z,7.90
2023-02-04T14:05:11.210Z,7.90
2023-02-04T14:07:39.237Z,7.90
2023-02-04T14:10:08.044Z,7.80
2023-02-04T14:12:36.230Z,7.80
2023-02-04T14:15:04.602Z,7.60
2023-02-04T14:17:32.603Z,7.50
2023-02-04T14:20:02.032Z,7.60
2023-02-04T14:22:30.034Z,7.60
2023-02-04T14:24:58.471Z,7.60
2023-02-04T14:27:27.251Z,7.60
2023-02-04T14:29:55.254Z,7.50
2023-02-04T14:32:23.372Z,7.50
2023-02-04T14:34:51.476Z,7.40
2023-02-04T14:37:20.884Z,7.30
2023-02-04T14:39:48.892Z,7.20
2023-02-04T14:42:16.854Z,7.20
2023-02-04T14:44:44.867Z,7.20
2023-02-04T14:47:12.866Z,7.20
2023-02-04T14:49:40.885Z,7.10
2023-02-04T14:52:10.457Z,7.10
2023-02-04T14:54:40.024Z,7.00
2023-02-04T14:57:11.276Z,7.00
2023-02-04T14:59:39.491Z,6.90
2023-02-04T15:02:09.044Z,6.90
2023-02-04T15:04:37.452Z,6.80
2023-02-04T15:07:05.519Z,6.80
2023-02-04T15:09:33.575Z,6.80
2023-02-04T15:12:02.997Z,6.70
2023-02-04T15:14:31.081Z,6.60
2023-02-04T15:16:59.311Z,6.60
2023-02-04T15:19:27.338Z,6.50
2023-02-04T15:21:55.332Z,6.50
2023-02-04T15:24:26.266Z,6.40
2023-02-04T15:26:54.315Z,6.40
2023-02-04T15:29:23.953Z,6.40
2023-02-04T15:31:52.043Z,6.40
2023-02-04T15:34:20.108Z,6.30
2023-02-04T15:36:48.082Z,6.30
2023-02-04T15:39:16.064Z,6.30
2023-02-04T15:41:44.044Z,6.30
2023-02-04T15:44:12.604Z,6.30
2023-02-04T15:46:41.991Z,6.30
2023-02-04T15:49:10.165Z,6.20
2023-02-04T15:51:38.182Z,6.20
2023-02-04T15:54:06.236Z,6.20
2023-02-04T15:56:34.332Z,6.10
2023-02-04T15:59:02.615Z,6.10
2023-02-04T16:01:30.771Z,6.10
2023-02-04T16:04:00.799Z,6.10
2023-02-04T16:06:28.870Z,6.00
2023-02-04T16:08:56.948Z,6.00
2023-02-04T16:11:25.115Z,5.90
2023-02-04T16:13:53.132Z,5.90
2023-02-04T16:16:21.507Z,5.90
2023-02-04T16:18:49.650Z,5.90
2023-02-04T16:21:19.425Z,5.90
2023-02-04T16:23:47.571Z,5.90
2023-02-04T16:26:15.617Z,5.80
2023-02-04T16:28:47.237Z,5.80
2023-02-04T16:31:15.623Z,5.80
2023-02-04T16:33:43.696Z,5.80
2023-02-04T16:36:13.740Z,5.70
2023-02-04T16:38:43.996Z,5.70
2023-02-04T16:41:14.334Z,5.70
2023-02-04T16:43:42.586Z,5.70
2023-02-04T16:46:12.381Z,5.70
2023-02-04T16:48:40.565Z,5.60
2023-02-04T16:51:10.682Z,5.50
2023-02-04T16:53:39.537Z,5.40
2023-02-04T16:56:09.401Z,5.40
2023-02-04T16:58:38.566Z,5.30
2023-02-04T17:01:07.532Z,5.20
2023-02-04T17:03:35.861Z,5.10
2023-02-04T17:06:04.174Z,5.00
2023-02-04T17:08:32.187Z,4.90
2023-02-04T17:11:17.008Z,4.90
2023-02-04T17:13:46.393Z,4.90
2023-02-04T17:16:14.562Z,4.80
2023-02-04T17:18:42.607Z,4.70
2023-02-04T17:21:10.684Z,4.70
2023-02-04T17:23:38.995Z,4.60
2023-02-04T17:26:07.080Z,4.50
2023-02-04T17:28:35.066Z,4.50
2023-02-04T17:31:05.505Z,4.50
2023-02-04T17:33:34.632Z,4.50
2023-02-04T17:36:03.326Z,4.40
2023-02-04T17:38:31.625Z,4.40
2023-02-04T17:41:01.201Z,4.40
2023-02-04T17:43:29.243Z,4.30
2023-02-04T17:45:57.342Z,4.20
2023-02-04T17:48:26.855Z,4.10
2023-02-04T17:50:54.898Z,4.00
2023-02-04T17:53:23.484Z,3.90
2023-02-04T17:55:51.564Z,3.90
2023-02-04T17:58:23.536Z,3.80
2023-02-04T18:00:52.425Z,3.80
2023-02-04T18:03:22.556Z,3.80
2023-02-04T18:05:53.587Z,3.80
2023-02-04T18:08:22.908Z,3.70
2023-02-04T18:10:51.965Z,3.70
2023-02-04T18:13:22.375Z,3.60
2023-02-04T18:15:52.338Z,3.60
2023-02-04T18:18:23.456Z,3.50
2023-02-04T18:21:00.222Z,3.50
2023-02-04T18:23:30.389Z,3.40
2023-02-04T18:26:08.527Z,3.30
2023-02-04T18:28:36.845Z,3.30
2023-02-04T18:31:19.623Z,3.30
2023-02-04T18:33:48.540Z,3.20
2023-02-04T18:36:23.087Z,3.20
2023-02-04T18:38:51.562Z,3.20
2023-02-04T18:41:38.553Z,3.20
2023-02-04T18:44:25.298Z,3.10
2023-02-04T18:46:53.708Z,3.10
2023-02-04T18:49:26.955Z,3.00
2023-02-04T18:51:57.862Z,3.00
2023-02-04T18:54:34.052Z,2.90
2023-02-04T18:57:29.022Z,2.90
2023-02-04T19:00:20.064Z,2.80
2023-02-04T19:02:50.673Z,2.80
2023-02-04T19:05:28.610Z,2.70
2023-02-04T19:08:22.597Z,2.60
2023-02-04T19:10:51.715Z,2.60
2023-02-04T19:13:22.221Z,2.50
2023-02-04T19:16:03.506Z,2.60
2023-02-04T19:18:37.516Z,2.50
2023-02-04T19:21:28.666Z,2.50
2023-02-04T19:24:13.257Z,2.50
2023-02-04T19:26:44.899Z,2.50
2023-02-04T19:29:42.987Z,2.50
2023-02-04T19:32:27.495Z,2.40
2023-02-04T19:34:58.460Z,2.40
2023-02-04T19:37:28.544Z,2.40
2023-02-04T19:39:58.206Z,2.40
2023-02-04T19:42:30.921Z,2.50
2023-02-04T19:45:00.415Z,2.60
2023-02-04T19:47:30.441Z,2.60
2023-02-04T19:50:06.647Z,2.70
2023-02-04T19:52:37.718Z,2.70
2023-02-04T19:55:33.769Z,2.60
2023-02-04T19:58:12.122Z,2.60
2023-02-04T20:00:47.918Z,2.50
2023-02-04T20:03:36.940Z,2.60
2023-02-04T20:06:30.037Z,2.50
2023-02-04T20:09:00.691Z,2.50
2023-02-04T20:12:00.570Z,2.50
2023-02-04T20:14:47.278Z,2.40
2023-02-04T20:17:39.110Z,2.30
2023-02-04T20:20:26.300Z,2.20
2023-02-04T20:22:56.671Z,2.30
2023-02-04T20:25:46.965Z,2.20
2023-02-04T20:28:42.033Z,2.20
2023-02-04T20:31:29.653Z,2.20
2023-02-04T20:33:59.462Z,2.20
2023-02-04T20:36:43.284Z,2.20
2023-02-04T20:39:41.465Z,2.20
2023-02-04T20:42:26.370Z,2.40
2023-02-04T20:44:56.474Z,2.30
2023-02-04T20:47:26.186Z,2.30
2023-02-04T20:49:56.367Z,2.30
2023-02-04T20:53:09.989Z,2.30
2023-02-04T20:55:38.021Z,2.30
2023-02-04T20:58:17.283Z,2.30
2023-02-04T21:00:52.113Z,2.30
2023-02-04T21:03:23.135Z,2.30
2023-02-04T21:05:52.499Z,2.30
2023-02-04T21:08:30.046Z,2.40
2023-02-04T21:10:58.659Z,2.40
2023-02-04T21:13:26.838Z,2.40
2023-02-04T21:15:56.650Z,2.40
2023-02-04T21:18:24.963Z,2.40
2023-02-04T21:20:53.150Z,2.50
2023-02-04T21:23:21.368Z,2.50
2023-02-04T21:25:49.541Z,2.50
2023-02-04T21:28:17.606Z,2.50
2023-02-04T21:30:45.776Z,2.50
2023-02-04T21:33:16.988Z,2.50
2023-02-04T21:35:45.277Z,2.50
2023-02-04T21:38:13.341Z,2.50
2023-02-04T21:40:41.752Z,2.60
2023-02-04T21:43:10.145Z,2.60
2023-02-04T21:45:39.801Z,2.60
2023-02-04T21:48:08.886Z,2.70
2023-02-04T21:50:39.519Z,2.80
2023-02-04T21:53:08.014Z,2.70
2023-02-04T21:55:36.733Z,2.70
2023-02-04T21:58:05.162Z,2.70
2023-02-04T22:00:33.505Z,2.70
2023-02-04T22:03:01.811Z,2.70
2023-02-04T22:05:29.897Z,2.70
2023-02-04T22:07:59.954Z,2.60
2023-02-04T22:10:28.275Z,2.60
2023-02-04T22:12:56.320Z,2.70
2023-02-04T22:15:25.000Z,2.70
2023-02-04T22:17:54.263Z,2.70
2023-02-04T22:20:23.472Z,2.80
2023-02-04T22:22:51.677Z,2.90
2023-02-04T22:25:22.442Z,2.90
2023-02-04T22:27:50.646Z,2.90
2023-02-04T22:30:19.938Z,2.80
2023-02-04T22:32:48.018Z,2.80
2023-02-04T22:35:16.641Z,2.80
2023-02-04T22:37:44.688Z,2.80
2023-02-04T22:40:14.055Z,2.80
2023-02-04T22:42:43.443Z,2.90
2023-02-04T22:45:11.718Z,2.90
2023-02-04T22:47:40.021Z,2.90
2023-02-04T22:50:09.000Z,2.90
2023-02-04T22:52:37.281Z,2.90
2023-02-04T22:55:05.982Z,2.80
2023-02-04T22:57:33.958Z,2.90
2023-02-04T23:00:03.357Z,2.90
2023-02-04T23:02:31.337Z,3.00
2023-02-04T23:04:59.367Z,3.00
2023-02-04T23:07:27.455Z,3.00
2023-02-04T23:09:55.503Z,3.00
2023-02-04T23:12:23.608Z,2.90
2023-02-04T23:14:51.667Z,3.00
2023-02-04T23:17:21.052Z,3.10
2023-02-04T23:19:49.089Z,3.10
2023-02-04T23:22:18.732Z,3.00
2023-02-04T23:24:46.900Z,3.00
2023-02-04T23:27:16.359Z,2.90
2023-02-04T23:29:44.455Z,2.80
2023-02-04T23:32:12.508Z,2.80
2023-02-04T23:34:41.928Z,2.90
2023-02-04T23:37:10.080Z,2.80
2023-02-04T23:39:38.182Z,2.80
2023-02-04T23:42:06.269Z,2.70
2023-02-04T23:44:34.305Z,2.70
2023-02-04T23:47:02.326Z,2.70
2023-02-04T23:49:30.360Z,2.60
2023-02-04T23:51:59.823Z,2.60
2023-02-04T23:54:27.888Z,2.50
2023-02-04T23:56:55.957Z,2.50
2023-02-04T23:59:23.967Z,2.50
